createdAt,value
2018-09-30T00:00:36.944Z,83.20
2018-09-30T00:03:07.601Z,82.96
2018-09-30T00:05:37.908Z,82.64
2018-09-30T00:08:08.583Z,82.83
2018-09-30T00:10:39.136Z,83.31
2018-09-30T00:13:09.897Z,83.29
2018-09-30T00:15:40.523Z,83.45
2018-09-30T00:18:10.871Z,83.13
2018-09-30T00:20:41.287Z,83.48
2018-09-30T00:23:12.114Z,83.00
2018-09-30T00:25:47.600Z,82.50
2018-09-30T00:28:18.067Z,81.69
2018-09-30T00:30:49.069Z,81.37
2018-09-30T00:33:20.177Z,81.08
2018-09-30T00:35:51.139Z,81.45
2018-09-30T00:38:21.612Z,81.61
2018-09-30T00:40:52.479Z,81.47
2018-09-30T00:43:22.831Z,81.54
2018-09-30T00:45:53.396Z,81.94
2018-09-30T00:48:24.001Z,82.25
2018-09-30T00:50:55.135Z,82.62
2018-09-30T00:53:25.596Z,83.64
2018-09-30T00:55:56.008Z,83.36
2018-09-30T00:58:26.995Z,83.26
2018-09-30T01:00:57.662Z,83.66
2018-09-30T01:03:28.682Z,83.72
2018-09-30T01:05:59.175Z,83.48
2018-09-30T01:08:29.588Z,83.34
2018-09-30T01:11:00.696Z,83.13
2018-09-30T01:13:32.038Z,83.52
2018-09-30T01:16:03.460Z,83.21
2018-09-30T01:18:34.074Z,83.00
2018-09-30T01:21:04.551Z,82.81
2018-09-30T01:23:35.459Z,82.59
2018-09-30T01:26:06.126Z,82.86
2018-09-30T01:28:36.544Z,83.55
2018-09-30T01:31:07.108Z,83.57
2018-09-30T01:33:37.406Z,83.86
2018-09-30T01:36:07.903Z,84.35
2018-09-30T01:38:38.402Z,84.77
2018-09-30T01:41:09.046Z,85.27
2018-09-30T01:43:39.724Z,85.75
2018-09-30T01:46:10.168Z,86.27
2018-09-30T01:48:40.851Z,85.79
2018-09-30T01:51:11.581Z,85.87
2018-09-30T01:53:42.030Z,85.60
2018-09-30T01:56:12.569Z,85.06
2018-09-30T01:58:42.963Z,84.78
2018-09-30T02:01:13.440Z,84.81
2018-09-30T02:03:43.808Z,84.65
2018-09-30T02:06:14.151Z,84.84
2018-09-30T02:08:44.535Z,85.46
2018-09-30T02:11:14.935Z,85.94
2018-09-30T02:13:45.388Z,85.89
2018-09-30T02:16:15.948Z,86.61
2018-09-30T02:18:46.432Z,86.93
2018-09-30T02:21:16.902Z,87.04
2018-09-30T02:23:47.420Z,87.15
2018-09-30T02:26:18.812Z,86.90
2018-09-30T02:28:49.259Z,87.26
2018-09-30T02:31:19.602Z,86.68
2018-09-30T02:33:50.002Z,86.48
2018-09-30T02:36:20.418Z,86.81
2018-09-30T02:38:50.770Z,87.23
2018-09-30T02:41:21.365Z,87.65
2018-09-30T02:43:51.789Z,87.67
2018-09-30T02:46:22.157Z,87.74
2018-09-30T02:48:52.572Z,87.41
2018-09-30T02:51:22.928Z,87.21
2018-09-30T02:53:53.849Z,87.34
2018-09-30T02:56:24.475Z,87.60
2018-09-30T02:58:55.442Z,87.25
2018-09-30T03:01:25.959Z,87.45
2018-09-30T03:03:56.491Z,88.06
2018-09-30T03:06:31.885Z,88.37
2018-09-30T03:09:07.217Z,88.26
2018-09-30T03:11:37.620Z,88.28
2018-09-30T03:14:08.142Z,88.55
2018-09-30T03:16:38.682Z,88.33
2018-09-30T03:19:09.343Z,89.08
2018-09-30T03:21:39.750Z,89.39
2018-09-30T03:24:11.094Z,89.66
2018-09-30T03:26:42.075Z,89.80
2018-09-30T03:29:12.433Z,89.69
2018-09-30T03:31:42.981Z,89.97
2018-09-30T03:34:13.530Z,90.10
2018-09-30T03:36:43.842Z,90.09
2018-09-30T03:39:14.274Z,90.37
2018-09-30T03:41:44.628Z,90.35
2018-09-30T03:44:15.251Z,90.45
2018-09-30T03:46:45.565Z,90.28
2018-09-30T03:49:15.990Z,89.85
2018-09-30T03:51:46.478Z,89.74
2018-09-30T03:54:16.957Z,89.83
2018-09-30T03:56:47.452Z,89.51
2018-09-30T03:59:17.963Z,88.99
2018-09-30T04:01:49.283Z,89.29
2018-09-30T04:04:19.809Z,88.99
2018-09-30T04:06:50.412Z,88.92
2018-09-30T04:09:20.890Z,88.55
2018-09-30T04:11:51.304Z,88.55
2018-09-30T04:14:21.801Z,88.21
2018-09-30T04:16:52.386Z,88.66
2018-09-30T04:19:23.044Z,89.09
2018-09-30T04:21:53.825Z,88.99
2018-09-30T04:24:24.411Z,89.18
2018-09-30T04:26:54.842Z,89.48
2018-09-30T04:29:25.516Z,89.57
2018-09-30T04:31:55.963Z,89.68
2018-09-30T04:34:27.165Z,89.74
2018-09-30T04:36:57.616Z,89.56
2018-09-30T04:39:28.103Z,89.43
2018-09-30T04:41:58.585Z,89.42
2018-09-30T04:44:29.133Z,89.02
2018-09-30T04:46:59.996Z,88.62
2018-09-30T04:49:30.531Z,88.25
2018-09-30T04:52:01.370Z,87.72
2018-09-30T04:54:31.862Z,87.72
2018-09-30T04:57:02.402Z,87.62
2018-09-30T04:59:32.812Z,87.42
2018-09-30T05:02:03.553Z,87.88
2018-09-30T05:04:34.108Z,88.05
2018-09-30T05:07:05.541Z,88.36
2018-09-30T05:09:36.127Z,88.29
2018-09-30T05:12:06.767Z,87.60
2018-09-30T05:14:37.261Z,87.00
2018-09-30T05:17:07.762Z,86.72
2018-09-30T05:19:38.254Z,86.38
2018-09-30T05:22:10.289Z,86.25
2018-09-30T05:24:40.815Z,85.87
2018-09-30T05:27:11.922Z,85.64
2018-09-30T05:29:42.880Z,85.05
2018-09-30T05:32:13.480Z,85.15
2018-09-30T05:34:44.115Z,85.03
2018-09-30T05:37:14.636Z,86.06
2018-09-30T05:39:46.073Z,84.22
2018-09-30T05:42:17.657Z,77.79
2018-09-30T05:44:48.256Z,71.55
2018-09-30T05:47:18.718Z,68.56
2018-09-30T05:49:49.227Z,67.59
2018-09-30T05:52:19.671Z,65.39
2018-09-30T05:54:50.201Z,63.77
2018-09-30T05:57:20.562Z,61.73
2018-09-30T05:59:51.040Z,59.68
2018-09-30T06:02:21.424Z,58.33
2018-09-30T06:04:51.829Z,56.94
2018-09-30T06:07:22.215Z,60.96
2018-09-30T06:09:52.762Z,58.57
2018-09-30T06:12:23.256Z,56.81
2018-09-30T06:14:53.864Z,54.51
2018-09-30T06:17:24.351Z,51.89
2018-09-30T06:19:55.078Z,50.62
2018-09-30T06:22:25.713Z,49.50
2018-09-30T06:24:56.255Z,49.01
2018-09-30T06:27:26.876Z,46.20
2018-09-30T06:29:57.680Z,44.61
2018-09-30T06:32:28.226Z,43.90
2018-09-30T06:34:58.575Z,42.84
2018-09-30T06:37:29.229Z,41.07
2018-09-30T06:39:59.868Z,40.34
2018-09-30T06:42:31.059Z,39.62
2018-09-30T06:45:01.559Z,39.08
2018-09-30T06:47:32.781Z,38.48
2018-09-30T06:50:03.542Z,38.33
2018-09-30T06:52:34.091Z,38.19
2018-09-30T06:55:04.788Z,37.33
2018-09-30T06:57:35.474Z,36.94
2018-09-30T07:00:06.184Z,37.42
2018-09-30T07:02:36.889Z,36.93
2018-09-30T07:05:07.676Z,35.95
2018-09-30T07:07:38.714Z,35.97
2018-09-30T07:10:09.382Z,36.28
2018-09-30T07:12:39.893Z,35.01
2018-09-30T07:15:10.872Z,34.92
2018-09-30T07:17:41.541Z,34.56
2018-09-30T07:20:12.255Z,34.25
2018-09-30T07:22:43.270Z,33.82
2018-09-30T07:25:13.855Z,33.95
2018-09-30T07:27:44.550Z,33.31
2018-09-30T07:30:15.184Z,33.07
2018-09-30T07:32:46.080Z,33.07
2018-09-30T07:35:17.205Z,32.12
2018-09-30T07:37:47.844Z,33.37
2018-09-30T07:40:18.626Z,31.96
2018-09-30T07:42:49.276Z,33.02
2018-09-30T07:45:21.307Z,32.19
2018-09-30T07:47:52.205Z,31.91
2018-09-30T07:50:25.433Z,31.64
2018-09-30T07:52:56.293Z,31.84
2018-09-30T07:55:27.255Z,30.62
2018-09-30T07:57:57.943Z,30.25
2018-09-30T08:00:28.892Z,30.67
2018-09-30T08:02:59.590Z,30.78
2018-09-30T08:05:30.350Z,31.69
2018-09-30T08:08:01.016Z,33.54
2018-09-30T08:10:31.869Z,31.30
2018-09-30T08:13:02.763Z,30.84
2018-09-30T08:15:33.350Z,30.24
2018-09-30T08:18:04.224Z,29.67
2018-09-30T08:20:35.082Z,28.55
2018-09-30T08:23:05.718Z,28.52
2018-09-30T08:25:36.321Z,27.12
2018-09-30T08:28:06.917Z,27.03
2018-09-30T08:30:38.129Z,25.06
2018-09-30T08:33:08.721Z,23.59
2018-09-30T08:35:40.069Z,22.96
2018-09-30T08:38:15.880Z,22.66
2018-09-30T08:40:51.813Z,21.86
2018-09-30T08:43:23.313Z,21.44
2018-09-30T08:45:53.932Z,22.15
2018-09-30T08:48:24.776Z,22.01
2018-09-30T08:50:55.897Z,22.67
2018-09-30T08:53:26.981Z,23.85
2018-09-30T08:55:58.790Z,22.02
2018-09-30T08:58:30.868Z,22.17
2018-09-30T09:01:01.992Z,22.65
2018-09-30T09:03:32.872Z,22.71
2018-09-30T09:06:05.421Z,21.95
2018-09-30T09:08:36.140Z,21.77
2018-09-30T09:11:07.576Z,21.52
2018-09-30T09:13:38.290Z,21.41
2018-09-30T09:16:09.071Z,21.60
2018-09-30T09:18:39.689Z,20.50
2018-09-30T09:21:10.283Z,19.75
2018-09-30T09:23:41.617Z,19.94
2018-09-30T09:26:12.086Z,18.12
2018-09-30T09:28:43.659Z,18.73
2018-09-30T09:31:14.759Z,19.58
2018-09-30T09:33:45.649Z,18.89
2018-09-30T09:36:16.522Z,18.72
2018-09-30T09:38:48.027Z,19.30
2018-09-30T09:41:19.380Z,18.81
2018-09-30T09:43:50.091Z,19.26
2018-09-30T09:46:22.287Z,19.05
2018-09-30T09:48:52.988Z,19.01
2018-09-30T09:51:23.794Z,18.72
2018-09-30T09:53:54.403Z,19.23
2018-09-30T09:56:25.490Z,19.46
2018-09-30T09:58:56.595Z,19.15
2018-09-30T10:01:27.919Z,18.94
2018-09-30T10:03:58.805Z,18.45
2018-09-30T10:06:29.425Z,18.12
2018-09-30T10:09:01.006Z,18.65
2018-09-30T10:11:37.998Z,19.08
2018-09-30T10:14:09.079Z,19.74
2018-09-30T10:16:39.858Z,19.34
2018-09-30T10:19:10.808Z,19.82
2018-09-30T10:21:41.971Z,18.53
2018-09-30T10:24:12.829Z,19.70
2018-09-30T10:26:43.274Z,19.73
2018-09-30T10:29:14.272Z,20.01
2018-09-30T10:31:44.991Z,20.37
2018-09-30T10:34:15.669Z,19.47
2018-09-30T10:36:46.520Z,18.16
2018-09-30T10:39:17.619Z,18.55
2018-09-30T10:41:48.168Z,17.56
2018-09-30T10:44:18.935Z,16.95
2018-09-30T10:46:49.489Z,17.74
2018-09-30T10:49:20.219Z,17.05
2018-09-30T10:51:50.948Z,17.34
2018-09-30T10:54:21.615Z,17.87
2018-09-30T10:56:52.377Z,17.08
2018-09-30T10:59:22.751Z,17.79
2018-09-30T11:01:53.250Z,17.46
2018-09-30T11:04:23.849Z,17.72
2018-09-30T11:06:54.543Z,17.41
2018-09-30T11:09:25.385Z,17.05
2018-09-30T11:11:56.051Z,17.59
2018-09-30T11:14:26.715Z,17.53
2018-09-30T11:16:57.626Z,17.42
2018-09-30T11:19:28.133Z,18.00
2018-09-30T11:21:58.479Z,17.33
2018-09-30T11:24:28.877Z,17.67
2018-09-30T11:26:59.704Z,18.72
2018-09-30T11:29:30.203Z,17.98
2018-09-30T11:32:00.882Z,17.94
2018-09-30T11:34:31.573Z,18.31
2018-09-30T11:37:02.103Z,18.69
2018-09-30T11:39:33.902Z,19.03
2018-09-30T11:42:04.436Z,18.48
2018-09-30T11:44:36.329Z,18.82
2018-09-30T11:47:06.988Z,18.67
2018-09-30T11:49:38.536Z,18.21
2018-09-30T11:52:09.406Z,18.01
2018-09-30T11:54:40.055Z,17.83
2018-09-30T11:57:10.586Z,18.89
2018-09-30T11:59:41.395Z,18.55
2018-09-30T12:02:12.062Z,17.87
2018-09-30T12:04:43.097Z,17.57
2018-09-30T12:07:13.965Z,17.22
2018-09-30T12:09:44.525Z,17.41
2018-09-30T12:12:15.155Z,17.88
2018-09-30T12:14:45.983Z,17.82
2018-09-30T12:17:17.024Z,17.65
2018-09-30T12:19:48.308Z,17.41
2018-09-30T12:22:19.315Z,17.18
2018-09-30T12:24:51.515Z,17.00
2018-09-30T12:27:22.294Z,16.39
2018-09-30T12:29:52.909Z,16.53
2018-09-30T12:32:25.209Z,16.87
2018-09-30T12:34:55.891Z,19.11
2018-09-30T12:37:27.796Z,19.08
2018-09-30T12:39:58.494Z,18.90
2018-09-30T12:42:29.413Z,18.36
2018-09-30T12:45:00.223Z,18.69
2018-09-30T12:47:31.605Z,20.16
2018-09-30T12:50:02.950Z,20.24
2018-09-30T12:52:34.634Z,19.73
2018-09-30T12:55:05.692Z,20.30
2018-09-30T12:57:36.481Z,18.42
2018-09-30T13:00:09.516Z,18.26
2018-09-30T13:02:40.334Z,19.31
2018-09-30T13:05:11.687Z,19.72
2018-09-30T13:07:42.612Z,19.62
2018-09-30T13:10:13.454Z,19.76
2018-09-30T13:12:44.260Z,19.61
2018-09-30T13:15:15.191Z,18.72
2018-09-30T13:17:45.994Z,18.17
2018-09-30T13:20:17.650Z,18.92
2018-09-30T13:22:48.558Z,19.17
2018-09-30T13:25:19.320Z,19.07
2018-09-30T13:27:50.430Z,18.34
2018-09-30T13:30:21.532Z,18.37
2018-09-30T13:32:53.020Z,18.29
2018-09-30T13:35:26.330Z,19.08
2018-09-30T13:37:57.355Z,20.46
2018-09-30T13:40:27.961Z,19.10
2018-09-30T13:42:58.562Z,18.39
2018-09-30T13:45:30.472Z,18.80
2018-09-30T13:48:00.960Z,18.02
2018-09-30T13:50:32.291Z,19.39
2018-09-30T13:53:03.295Z,18.39
2018-09-30T13:55:34.626Z,18.02
2018-09-30T13:58:05.231Z,18.21
2018-09-30T14:00:36.067Z,18.29
2018-09-30T14:03:07.143Z,19.48
2018-09-30T14:05:37.718Z,18.90
2018-09-30T14:08:09.041Z,19.01
2018-09-30T14:10:39.775Z,18.87
2018-09-30T14:13:11.325Z,19.09
2018-09-30T14:15:41.864Z,18.67
2018-09-30T14:18:13.081Z,18.80
2018-09-30T14:20:43.769Z,19.91
2018-09-30T14:23:14.325Z,20.17
2018-09-30T14:25:45.024Z,20.81
2018-09-30T14:28:15.972Z,21.21
2018-09-30T14:30:46.746Z,23.09
2018-09-30T14:33:17.319Z,25.34
2018-09-30T14:35:47.987Z,23.48
2018-09-30T14:38:18.730Z,23.54
2018-09-30T14:40:49.328Z,24.10
2018-09-30T14:43:20.041Z,22.75
2018-09-30T14:45:50.916Z,22.09
2018-09-30T14:48:22.060Z,22.37
2018-09-30T14:50:52.675Z,21.98
2018-09-30T14:53:23.582Z,22.29
2018-09-30T14:55:54.354Z,23.09
2018-09-30T14:58:25.180Z,22.70
2018-09-30T15:00:55.951Z,22.50
2018-09-30T15:03:26.525Z,21.87
2018-09-30T15:05:57.179Z,21.53
2018-09-30T15:08:27.853Z,22.55
2018-09-30T15:10:58.590Z,22.13
2018-09-30T15:13:29.171Z,22.01
2018-09-30T15:16:00.000Z,21.80
2018-09-30T15:18:31.114Z,22.14
2018-09-30T15:21:02.154Z,23.10
2018-09-30T15:23:33.109Z,23.16
2018-09-30T15:26:04.002Z,23.44
2018-09-30T15:28:34.999Z,24.01
2018-09-30T15:31:06.442Z,23.70
2018-09-30T15:33:37.500Z,23.92
2018-09-30T15:36:08.616Z,23.37
2018-09-30T15:38:39.748Z,24.29
2018-09-30T15:41:10.494Z,23.97
2018-09-30T15:43:41.437Z,24.15
2018-09-30T15:46:12.344Z,23.68
2018-09-30T15:48:43.177Z,23.53
2018-09-30T15:51:13.776Z,23.88
2018-09-30T15:53:44.348Z,24.98
2018-09-30T15:56:15.392Z,24.99
2018-09-30T15:58:46.074Z,25.52
2018-09-30T16:01:16.806Z,25.99
2018-09-30T16:03:47.797Z,26.34
2018-09-30T16:06:18.635Z,26.96
2018-09-30T16:08:49.573Z,27.56
2018-09-30T16:11:20.366Z,28.63
2018-09-30T16:13:51.312Z,28.67
2018-09-30T16:16:22.874Z,29.30
2018-09-30T16:18:54.333Z,29.55
2018-09-30T16:21:26.778Z,30.22
2018-09-30T16:23:58.298Z,30.54
2018-09-30T16:26:30.182Z,30.88
2018-09-30T16:29:01.655Z,31.18
2018-09-30T16:31:32.794Z,31.55
2018-09-30T16:34:03.651Z,32.45
2018-09-30T16:36:34.876Z,33.42
2018-09-30T16:39:07.408Z,35.97
2018-09-30T16:41:38.464Z,36.92
2018-09-30T16:44:09.571Z,38.70
2018-09-30T16:46:41.373Z,39.39
2018-09-30T16:49:12.248Z,40.51
2018-09-30T16:51:43.591Z,41.31
2018-09-30T16:54:14.250Z,42.17
2018-09-30T16:56:45.108Z,43.53
2018-09-30T16:59:15.873Z,44.36
2018-09-30T17:01:46.548Z,44.25
2018-09-30T17:04:17.369Z,45.36
2018-09-30T17:06:48.360Z,45.91
2018-09-30T17:09:19.365Z,46.26
2018-09-30T17:11:50.629Z,46.31
2018-09-30T17:14:22.109Z,46.89
2018-09-30T17:16:54.113Z,47.98
2018-09-30T17:19:26.284Z,49.43
2018-09-30T17:21:58.621Z,50.91
2018-09-30T17:24:30.118Z,49.98
2018-09-30T17:27:02.758Z,50.07
2018-09-30T17:29:34.588Z,50.85
2018-09-30T17:32:06.380Z,50.63
2018-09-30T17:34:38.147Z,51.40
2018-09-30T17:37:10.667Z,51.51
2018-09-30T17:39:42.066Z,51.78
2018-09-30T17:42:13.366Z,51.80
2018-09-30T17:44:45.012Z,51.21
2018-09-30T17:47:16.623Z,51.64
2018-09-30T17:49:48.008Z,51.86
2018-09-30T17:52:19.649Z,52.43
2018-09-30T17:54:52.426Z,52.71
2018-09-30T17:57:24.242Z,52.87
2018-09-30T17:59:55.803Z,53.49
2018-09-30T18:02:27.436Z,53.54
2018-09-30T18:04:58.550Z,54.05
2018-09-30T18:07:29.420Z,54.86
2018-09-30T18:10:00.230Z,55.24
2018-09-30T18:12:31.290Z,55.96
2018-09-30T18:15:02.051Z,56.48
2018-09-30T18:17:32.606Z,56.97
2018-09-30T18:20:03.414Z,57.82
2018-09-30T18:22:34.450Z,57.90
2018-09-30T18:25:05.572Z,57.73
2018-09-30T18:27:36.725Z,58.44
2018-09-30T18:30:08.535Z,58.26
2018-09-30T18:32:40.848Z,59.18
2018-09-30T18:35:12.256Z,59.63
2018-09-30T18:37:44.932Z,59.44
2018-09-30T18:40:17.574Z,60.08
2018-09-30T18:42:51.516Z,60.57
2018-09-30T18:45:23.172Z,60.26
2018-09-30T18:47:54.102Z,61.69
2018-09-30T18:50:24.857Z,61.76
2018-09-30T18:52:57.002Z,61.75
2018-09-30T18:55:43.907Z,61.75
2018-09-30T18:58:19.379Z,61.72
2018-09-30T19:00:51.889Z,61.69
2018-09-30T19:03:26.704Z,61.60
2018-09-30T19:06:03.014Z,61.73
2018-09-30T19:08:35.575Z,61.53
2018-09-30T19:11:07.735Z,62.05
2018-09-30T19:13:38.698Z,62.07
2018-09-30T19:16:09.950Z,62.64
2018-09-30T19:18:42.656Z,63.04
2018-09-30T19:21:13.885Z,63.51
2018-09-30T19:23:45.407Z,63.38
2018-09-30T19:26:16.854Z,63.46
2018-09-30T19:28:47.754Z,63.17
2018-09-30T19:31:18.442Z,62.68
2018-09-30T19:33:49.232Z,62.77
2018-09-30T19:36:20.189Z,63.16
2018-09-30T19:38:51.473Z,63.85
2018-09-30T19:41:22.567Z,63.96
2018-09-30T19:43:53.327Z,64.58
2018-09-30T19:46:24.244Z,64.40
2018-09-30T19:48:55.225Z,65.11
2018-09-30T19:51:26.910Z,65.83
2018-09-30T19:53:58.466Z,65.79
2018-09-30T19:56:29.788Z,66.12
2018-09-30T19:59:00.800Z,65.98
2018-09-30T20:01:32.602Z,65.79
2018-09-30T20:04:03.769Z,65.97
2018-09-30T20:06:35.031Z,66.06
2018-09-30T20:09:07.675Z,66.44
2018-09-30T20:11:39.146Z,66.63
2018-09-30T20:14:10.474Z,66.62
2018-09-30T20:16:42.184Z,67.77
2018-09-30T20:19:17.262Z,67.96
2018-09-30T20:21:48.415Z,68.01
2018-09-30T20:24:22.906Z,68.62
2018-09-30T20:26:55.196Z,68.90
2018-09-30T20:29:29.954Z,69.02
2018-09-30T20:32:02.872Z,69.04
2018-09-30T20:34:38.326Z,69.43
2018-09-30T20:37:09.203Z,69.49
2018-09-30T20:39:42.188Z,69.68
2018-09-30T20:42:15.813Z,69.71
2018-09-30T20:44:46.530Z,69.87
2018-09-30T20:47:19.034Z,70.43
2018-09-30T20:49:49.984Z,69.84
2018-09-30T20:52:20.635Z,69.30
2018-09-30T20:54:51.453Z,69.41
2018-09-30T20:57:22.201Z,68.95
2018-09-30T20:59:52.818Z,69.33
2018-09-30T21:02:23.409Z,69.61
2018-09-30T21:04:54.236Z,70.28
2018-09-30T21:07:24.738Z,70.19
2018-09-30T21:09:55.157Z,71.24
2018-09-30T21:12:26.855Z,71.32
2018-09-30T21:14:57.917Z,71.58
2018-09-30T21:17:28.600Z,72.19
2018-09-30T21:19:59.869Z,72.66
2018-09-30T21:22:30.484Z,72.58
2018-09-30T21:25:01.022Z,73.20
2018-09-30T21:27:32.180Z,73.26
2018-09-30T21:30:02.767Z,73.95
2018-09-30T21:32:33.259Z,73.69
2018-09-30T21:35:03.745Z,74.04
2018-09-30T21:37:34.339Z,74.34
2018-09-30T21:40:05.066Z,74.21
2018-09-30T21:42:35.687Z,73.91
2018-09-30T21:45:06.337Z,73.49
2018-09-30T21:47:36.964Z,74.19
2018-09-30T21:50:07.472Z,74.50
2018-09-30T21:52:38.443Z,75.45
2018-09-30T21:55:09.226Z,76.08
2018-09-30T21:57:40.053Z,76.29
2018-09-30T22:00:10.838Z,76.87
2018-09-30T22:02:42.089Z,76.92
2018-09-30T22:05:12.574Z,76.23
2018-09-30T22:07:43.262Z,75.89
2018-09-30T22:10:14.261Z,75.81
2018-09-30T22:12:44.629Z,75.80
2018-09-30T22:15:15.136Z,75.79
2018-09-30T22:17:45.709Z,75.57
2018-09-30T22:20:16.179Z,75.81
2018-09-30T22:22:46.735Z,75.32
2018-09-30T22:25:17.317Z,75.55
2018-09-30T22:27:47.734Z,75.43
2018-09-30T22:30:18.195Z,75.47
2018-09-30T22:32:48.911Z,75.71
2018-09-30T22:35:19.367Z,76.10
2018-09-30T22:37:49.842Z,76.17
2018-09-30T22:40:20.603Z,76.23
2018-09-30T22:42:51.162Z,76.33
2018-09-30T22:45:21.663Z,76.58
2018-09-30T22:47:52.637Z,77.57
2018-09-30T22:50:23.146Z,77.28
2018-09-30T22:52:53.995Z,77.11
2018-09-30T22:55:24.522Z,77.59
2018-09-30T22:57:54.989Z,77.80
2018-09-30T23:00:25.480Z,77.90
2018-09-30T23:02:56.256Z,78.68
2018-09-30T23:05:26.924Z,78.99
2018-09-30T23:07:57.266Z,78.74
2018-09-30T23:10:27.987Z,79.19
2018-09-30T23:12:58.505Z,78.86
2018-09-30T23:15:29.105Z,79.23
2018-09-30T23:17:59.652Z,79.82
2018-09-30T23:20:30.198Z,80.59
2018-09-30T23:23:00.743Z,80.34
2018-09-30T23:25:32.542Z,80.23
2018-09-30T23:28:03.200Z,80.06
2018-09-30T23:30:35.153Z,80.42
2018-09-30T23:33:05.675Z,80.26
2018-09-30T23:35:36.225Z,79.87
2018-09-30T23:38:06.718Z,79.64
2018-09-30T23:40:37.327Z,79.54
2018-09-30T23:43:08.202Z,80.09
2018-09-30T23:45:38.624Z,80.22
2018-09-30T23:48:09.114Z,80.77
2018-09-30T23:50:39.509Z,79.94
2018-09-30T23:53:09.928Z,80.43
2018-09-30T23:55:40.532Z,80.34
2018-09-30T23:58:13.568Z,80.39
